Meteorología y climatología de Navarra
Datos de la estación - Meteo Navarra

Estación de Carrascal GN

Altitud 568 m.


Datos desde el 12/09/2019 hasta el 13/09/2019 en horario solar
Los datos son PROVISIONALES

Anterior Página 1 de 1 Siguiente Descargar: Formato para Excel 2000 o superior   Formato csv   Formato para OpenOffice Calc
Fecha Temperatura Humedad relativa Radiación global Insolación Precipitación Vel. viento 10 m Vel. viento 10 m Dir. viento 10 m
ºC % W/m² s l/m² m/s km/h º
12/09/2019 0:00 12.3 80 0.0 0 0.0 10.9 39.1 42
12/09/2019 0:10 12.4 80 0.0 0 0.0 10.5 37.7 45
12/09/2019 0:20 12.5 80 0.0 0 0.0 9.9 35.7 41
12/09/2019 0:30 12.4 80 0.0 0 0.0 9.6 34.5 39
12/09/2019 0:40 12.4 79 0.0 0 0.0 9.7 34.9 42
12/09/2019 0:50 12.4 79 0.0 0 0.0 10.1 36.4 42
12/09/2019 1:00 12.2 79 0.0 0 0.0 9.5 34.2 41
12/09/2019 1:10 12.4 79 0.0 0 0.0 9.3 33.6 39
12/09/2019 1:20 12.1 79 0.0 0 0.0 10.0 35.9 39
12/09/2019 1:30 12.2 79 0.0 0 0.0 9.8 35.3 40
12/09/2019 1:40 12.2 79 0.0 0 0.0 9.5 34.3 40
12/09/2019 1:50 12.2 79 0.0 0 0.0 9.1 32.9 41
12/09/2019 2:00 12.2 79 0.0 0 0.0 8.8 31.6 47
12/09/2019 2:10 12.1 79 0.0 0 0.0 8.1 29.3 49
12/09/2019 2:20 12.1 79 0.0 0 0.0 9.6 34.4 44
12/09/2019 2:30 12.1 79 0.0 0 0.0 9.1 32.7 52
12/09/2019 2:40 12.3 77 0.0 0 0.0 9.9 35.5 56
12/09/2019 2:50 12.3 77 0.0 0 0.0 9.5 34.2 55
12/09/2019 3:00 12.3 77 0.0 0 0.0 10.5 37.9 46
12/09/2019 3:10 12.1 78 0.0 0 0.0 8.9 32.0 41
12/09/2019 3:20 11.8 78 0.0 0 0.0 9.2 33.2 49
12/09/2019 3:30 12.1 77 0.0 0 0.0 9.1 32.6 51
12/09/2019 3:40 12.1 77 0.0 0 0.0 6.7 24.3 39
12/09/2019 3:50 11.8 78 0.0 0 0.0 7.2 25.8 42
12/09/2019 4:00 11.7 78 0.0 0 0.0 6.6 23.6 45
12/09/2019 4:10 11.6 78 0.0 0 0.0 6.3 22.6 39
12/09/2019 4:20 11.7 78 0.0 0 0.0 7.2 25.8 45
12/09/2019 4:30 11.5 79 0.0 0 0.0 6.7 24.0 40
12/09/2019 4:40 11.7 78 0.0 0 0.0 7.8 28.2 47
12/09/2019 4:50 11.7 77 0.0 0 0.0 8.8 31.8 45
12/09/2019 5:00 11.6 78 0.0 0 0.0 8.6 30.8 46
12/09/2019 5:10 11.8 77 0.0 0 0.0 8.8 31.7 50
12/09/2019 5:20 11.6 78 0.0 0 0.0 8.2 29.6 50
12/09/2019 5:30 11.6 78 0.0 0 0.0 8.6 31.1 47
12/09/2019 5:40 11.5 78 0.0 0 0.0 8.5 30.7 44
12/09/2019 5:50 11.7 78 0.0 0 0.0 8.8 31.8 47
12/09/2019 6:00 11.6 78 0.2 0 0.0 8.6 30.8 41
12/09/2019 6:10 11.3 80 21.2 0 0.0 7.8 28.2 43
12/09/2019 6:20 11.4 80 27.2 0 0.0 8.8 31.5 42
12/09/2019 6:30 11.3 81 32.4 0 0.0 8.1 29.1 41
12/09/2019 6:40 11.4 81 37.0 0 0.0 8.2 29.4 49
12/09/2019 6:50 12.0 80 110.0 356 0.0 9.2 33.2 47
12/09/2019 7:00 12.6 78 180.4 600 0.0 9.2 32.9 42
12/09/2019 7:10 12.9 76 212.0 600 0.0 8.8 31.5 46
12/09/2019 7:20 13.0 76 244.0 600 0.0 8.7 31.4 43
12/09/2019 7:30 13.2 75 276.8 600 0.0 8.8 31.6 48
12/09/2019 7:40 13.3 75 309.0 600 0.0 8.6 30.8 46
12/09/2019 7:50 13.8 74 340.8 600 0.0 8.4 30.3 44
12/09/2019 8:00 14.0 73 371.2 600 0.0 8.6 31.0 48
12/09/2019 8:10 14.2 72 398.5 600 0.0 8.5 30.4 48
12/09/2019 8:20 14.6 71 415.2 600 0.0 8.1 29.0 48
12/09/2019 8:30 14.7 70 432.3 600 0.0 7.8 28.0 51
12/09/2019 8:40 15.1 69 456.8 600 0.0 7.8 28.0 54
12/09/2019 8:50 15.4 67 485.1 600 0.0 7.3 26.2 54
12/09/2019 9:00 16.0 65 511.4 600 0.0 6.9 24.9 51
12/09/2019 9:10 16.3 64 527.9 600 0.0 6.3 22.6 54
12/09/2019 9:20 16.8 62 547.3 600 0.0 5.4 19.3 48
12/09/2019 9:30 17.2 61 571.6 600 0.0 4.9 17.6 54
12/09/2019 9:40 17.7 59 597.9 600 0.0 5.0 18.1 47
12/09/2019 9:50 18.4 57 621.2 600 0.0 4.5 16.2 47
12/09/2019 10:00 18.7 55 645.0 600 0.0 4.6 16.5 51
12/09/2019 10:10 19.2 53 668.5 600 0.0 4.8 17.4 54
12/09/2019 10:20 19.6 52 691.4 600 0.0 5.2 18.7 49
12/09/2019 10:30 19.9 51 704.7 600 0.0 5.3 19.0 53
12/09/2019 10:40 20.3 50 722.0 600 0.0 4.9 17.7 41
12/09/2019 10:50 20.6 49 741.4 600 0.0 4.6 16.6 40
12/09/2019 11:00 21.0 48 755.8 600 0.0 4.9 17.7 43
12/09/2019 11:10 21.4 47 767.3 600 0.0 4.5 16.1 48
12/09/2019 11:20 21.7 47 777.0 600 0.0 3.9 13.9 49
12/09/2019 11:30 22.2 46 786.2 600 0.0 3.3 11.8 56
12/09/2019 11:40 22.9 44 794.9 600 0.0 2.5 8.9 35
12/09/2019 11:50 23.4 43 804.0 600 0.0 3.3 11.8 51
12/09/2019 12:00 23.7 41 811.0 600 0.0 3.4 12.1 55
12/09/2019 12:10 23.9 41 816.0 600 0.0 3.5 12.6 58
12/09/2019 12:20 24.2 40 818.0 600 0.0 3.4 12.1 53
12/09/2019 12:30 25.2 38 817.0 600 0.0 2.8 10.2 25
12/09/2019 12:40 25.1 37 816.0 600 0.0 3.2 11.6 40
12/09/2019 12:50 25.3 37 809.0 600 0.0 3.4 12.4 52
12/09/2019 13:00 25.4 36 801.0 600 0.0 3.9 14.1 53
12/09/2019 13:10 25.6 36 790.2 600 0.0 3.2 11.5 74
12/09/2019 13:20 25.8 36 775.5 600 0.0 2.2 7.9 71
12/09/2019 13:30 26.3 35 759.9 600 0.0 3.9 14.1 44
12/09/2019 13:40 26.2 34 747.9 600 0.0 3.5 12.5 26
12/09/2019 13:50 26.0 34 729.7 600 0.0 2.9 10.5 28
12/09/2019 14:00 26.7 33 716.0 600 0.0 4.8 17.2 31
12/09/2019 14:10 26.4 33 694.8 600 0.0 4.8 17.2 42
12/09/2019 14:20 27.1 33 674.6 600 0.0 4.7 16.7 3
12/09/2019 14:30 27.1 34 652.8 600 0.0 5.5 19.9 12
12/09/2019 14:40 26.3 37 631.0 600 0.0 7.0 25.1 11
12/09/2019 14:50 26.2 38 604.5 600 0.0 7.1 25.6 9
12/09/2019 15:00 26.0 38 580.2 600 0.0 7.0 25.2 7
12/09/2019 15:10 25.9 38 553.0 600 0.0 7.0 25.2 10
12/09/2019 15:20 25.7 39 524.0 600 0.0 7.6 27.3 11
12/09/2019 15:30 25.4 39 495.1 600 0.0 7.5 27.0 8
12/09/2019 15:40 25.3 40 466.2 600 0.0 7.4 26.6 7
12/09/2019 15:50 25.1 41 434.5 600 0.0 7.6 27.4 7
12/09/2019 16:00 25.0 43 406.4 600 0.0 7.8 28.1 7
12/09/2019 16:10 24.6 44 378.6 600 0.0 8.4 30.2 3
12/09/2019 16:20 24.3 45 348.4 600 0.0 8.8 31.5 9
12/09/2019 16:30 24.0 47 317.2 600 0.0 9.3 33.4 10
12/09/2019 16:40 23.6 47 285.6 600 0.0 8.9 31.9 13
12/09/2019 16:50 23.6 48 257.9 600 0.0 8.4 30.3 11
12/09/2019 17:00 23.2 47 231.1 600 0.0 8.8 31.6 13
12/09/2019 17:10 23.0 48 201.6 600 0.0 8.4 30.2 18
12/09/2019 17:20 22.7 50 171.3 600 0.0 9.3 33.4 15
12/09/2019 17:30 22.3 52 140.5 600 0.0 9.5 34.0 12
12/09/2019 17:40 22.0 54 112.3 600 0.0 9.4 33.8 12
12/09/2019 17:50 21.7 55 85.7 600 0.0 9.3 33.6 13
12/09/2019 18:00 21.2 56 59.3 600 0.0 9.6 34.6 13
12/09/2019 18:10 20.6 58 36.5 488 0.0 9.9 35.8 12
12/09/2019 18:20 20.3 59 10.1 0 0.0 9.7 34.8 14
12/09/2019 18:30 19.8 61 0.0 0 0.0 9.8 35.4 16
12/09/2019 18:40 19.4 62 0.0 0 0.0 9.5 34.3 17
12/09/2019 18:50 19.4 63 0.0 0 0.0 10.2 36.8 16
12/09/2019 19:00 19.1 63 0.0 0 0.0 9.6 34.5 20
12/09/2019 19:10 18.7 65 0.0 0 0.0 8.6 31.0 30
12/09/2019 19:20 18.5 66 0.0 0 0.0 8.9 32.1 35
12/09/2019 19:30 18.3 67 0.0 0 0.0 8.8 31.8 39
12/09/2019 19:40 18.1 67 0.0 0 0.0 9.4 33.7 39
12/09/2019 19:50 18.2 68 0.0 0 0.0 9.2 33.1 39
12/09/2019 20:00 17.8 69 0.0 0 0.0 9.7 35.0 46
12/09/2019 20:10 17.8 69 0.0 0 0.0 9.8 35.1 47
12/09/2019 20:20 17.6 70 0.0 0 0.0 9.3 33.6 47
12/09/2019 20:30 17.6 71 0.0 0 0.0 9.4 33.7 46
12/09/2019 20:40 17.3 71 0.0 0 0.0 9.5 34.1 47
12/09/2019 20:50 17.3 71 0.0 0 0.0 10.2 36.7 49
12/09/2019 21:00 17.2 72 0.0 0 0.0 10.0 36.1 45
12/09/2019 21:10 16.9 72 0.0 0 0.0 9.7 34.8 43
12/09/2019 21:20 17.0 73 0.0 0 0.0 9.2 33.2 45
12/09/2019 21:30 16.9 72 0.0 0 0.0 10.0 36.0 41
12/09/2019 21:40 17.0 73 0.0 0 0.0 9.9 35.5 40
12/09/2019 21:50 16.8 73 0.0 0 0.0 9.7 34.8 37
12/09/2019 22:00 16.9 72 0.0 0 0.0 10.7 38.5 33
12/09/2019 22:10 16.7 73 0.0 0 0.0 9.2 33.1 38
12/09/2019 22:20 16.5 74 0.0 0 0.0 10.4 37.4 45
12/09/2019 22:30 16.5 74 0.0 0 0.0 10.9 39.2 43
12/09/2019 22:40 16.3 75 0.0 0 0.0 10.2 36.7 43
12/09/2019 22:50 16.1 76 0.0 0 0.0 9.6 34.5 42
12/09/2019 23:00 16.0 75 0.0 0 0.0 9.2 33.2 47
12/09/2019 23:10 16.0 76 0.0 0 0.0 8.7 31.2 47
12/09/2019 23:20 15.8 76 0.0 0 0.0 8.6 31.0 48
12/09/2019 23:30 15.8 76 0.0 0 0.0 8.9 31.9 53
12/09/2019 23:40 15.6 76 0.0 0 0.0 8.9 32.2 54
12/09/2019 23:50 15.9 76 0.0 0 0.0 9.7 34.9 56
Anterior Página 1 de 1 Siguiente

NOTA: Tipo de datos según el color:
   - Valores diarios o 10 minutos correctos
   - Valores diarios calculados a partir de un número de datos 10 minutos menor que 144 y mayor que 120, o de un número de datos semihorarios menor que 48 y mayor que 40 (caso de las estaciones de Riegos de Navarra y del MARM)
   - Valores diez minutos estimados


Contacto        Enlaces        Aviso legal